createdAt,value
2023-01-17T00:00:06.332Z,0.00
2023-01-17T00:01:06.291Z,0.00
2023-01-17T00:02:06.317Z,0.00
2023-01-17T00:03:06.275Z,0.00
2023-01-17T00:04:06.318Z,0.00
2023-01-17T00:05:06.247Z,0.00
2023-01-17T00:06:06.241Z,0.00
2023-01-17T00:07:06.262Z,0.00
2023-01-17T00:08:06.212Z,0.00
2023-01-17T00:09:06.203Z,0.00
2023-01-17T00:10:06.193Z,0.00
2023-01-17T00:11:06.185Z,0.00
2023-01-17T00:12:06.263Z,0.00
2023-01-17T00:13:06.163Z,0.00
2023-01-17T00:14:06.154Z,0.00
2023-01-17T00:15:06.142Z,0.00
2023-01-17T00:16:06.146Z,0.00
2023-01-17T00:17:06.140Z,0.00
2023-01-17T00:18:06.140Z,0.00
2023-01-17T00:19:06.097Z,0.00
2023-01-17T00:20:06.085Z,0.00
2023-01-17T00:21:06.078Z,0.00
2023-01-17T00:22:06.077Z,0.00
2023-01-17T00:23:06.060Z,0.00
2023-01-17T00:24:06.051Z,0.00
2023-01-17T00:25:06.037Z,0.00
2023-01-17T00:26:06.018Z,0.00
2023-01-17T00:27:06.024Z,0.00
2023-01-17T00:28:06.000Z,0.00
2023-01-17T00:29:05.993Z,0.00
2023-01-17T00:30:05.989Z,0.00
2023-01-17T00:31:05.992Z,0.00
2023-01-17T00:32:05.975Z,0.00
2023-01-17T00:33:05.962Z,0.00
2023-01-17T00:34:05.967Z,0.00
2023-01-17T00:35:05.928Z,0.00
2023-01-17T00:36:05.919Z,0.00
2023-01-17T00:37:05.917Z,0.00
2023-01-17T00:38:05.916Z,0.00
2023-01-17T00:39:05.887Z,0.00
2023-01-17T00:40:05.883Z,0.00
2023-01-17T00:41:05.874Z,0.00
2023-01-17T00:42:05.866Z,0.00
2023-01-17T00:43:05.847Z,0.00
2023-01-17T00:44:05.841Z,0.00
2023-01-17T00:45:05.836Z,0.00
2023-01-17T00:46:05.828Z,0.00
2023-01-17T00:47:05.814Z,0.00
2023-01-17T00:48:05.787Z,0.00
2023-01-17T00:49:05.778Z,0.00
2023-01-17T00:50:05.832Z,0.00
2023-01-17T00:51:05.757Z,0.00
2023-01-17T00:52:05.796Z,0.00
2023-01-17T00:53:05.763Z,0.00
2023-01-17T00:54:05.753Z,0.00
2023-01-17T00:55:05.715Z,0.00
2023-01-17T00:56:05.714Z,0.00
2023-01-17T00:57:05.705Z,0.00
2023-01-17T00:58:05.709Z,0.00
2023-01-17T00:59:05.692Z,0.00
2023-01-17T01:00:05.667Z,0.00
2023-01-17T01:01:05.735Z,0.00
2023-01-17T01:02:05.846Z,0.00
2023-01-17T01:03:05.630Z,0.00
2023-01-17T01:04:05.618Z,0.00
2023-01-17T01:05:05.615Z,0.00
2023-01-17T01:06:05.619Z,0.00
2023-01-17T01:07:05.594Z,0.00
2023-01-17T01:08:05.577Z,0.00
2023-01-17T01:09:05.565Z,0.00
2023-01-17T01:10:05.558Z,0.00
2023-01-17T01:11:05.564Z,0.00
2023-01-17T01:12:05.548Z,0.00
2023-01-17T01:13:05.521Z,0.00
2023-01-17T01:14:05.515Z,0.00
2023-01-17T01:15:05.503Z,0.00
2023-01-17T01:16:05.603Z,0.00
2023-01-17T01:17:05.503Z,0.00
2023-01-17T01:18:05.475Z,0.00
2023-01-17T01:19:05.458Z,0.00
2023-01-17T01:20:05.460Z,0.00
2023-01-17T01:21:05.448Z,0.00
2023-01-17T01:22:05.465Z,0.00
2023-01-17T01:23:05.419Z,0.00
2023-01-17T01:24:05.407Z,0.00
2023-01-17T01:25:05.395Z,0.00
2023-01-17T01:26:05.387Z,0.00
2023-01-17T01:27:05.390Z,0.00
2023-01-17T01:28:05.362Z,0.00
2023-01-17T01:29:05.355Z,0.00
2023-01-17T01:30:05.340Z,0.00
2023-01-17T01:31:05.333Z,0.00
2023-01-17T01:32:05.331Z,0.00
2023-01-17T01:33:05.309Z,0.00
2023-01-17T01:34:05.310Z,0.00
2023-01-17T01:35:05.286Z,0.00
2023-01-17T01:36:05.288Z,0.00
2023-01-17T01:37:05.338Z,0.00
2023-01-17T01:38:05.291Z,0.00
2023-01-17T01:39:05.245Z,0.00
2023-01-17T01:40:05.236Z,0.00
2023-01-17T01:41:05.225Z,0.00
2023-01-17T01:42:05.214Z,0.00
2023-01-17T01:43:05.214Z,0.00
2023-01-17T01:44:05.193Z,0.00
2023-01-17T01:45:05.187Z,0.00
2023-01-17T01:46:05.228Z,0.00
2023-01-17T01:47:05.162Z,0.00
2023-01-17T01:48:05.162Z,0.00
2023-01-17T01:49:05.168Z,0.00
2023-01-17T01:50:05.135Z,0.00
2023-01-17T01:51:05.121Z,0.00
2023-01-17T01:52:05.111Z,0.00
2023-01-17T01:53:05.166Z,0.00
2023-01-17T01:54:05.118Z,0.00
2023-01-17T01:55:05.087Z,0.00
2023-01-17T01:56:05.066Z,0.00
2023-01-17T01:57:05.081Z,0.00
2023-01-17T01:58:05.062Z,0.00
2023-01-17T01:59:05.035Z,0.00
2023-01-17T02:00:05.022Z,0.00
2023-01-17T02:01:05.110Z,0.00
2023-01-17T02:02:05.005Z,0.00
2023-01-17T02:03:04.999Z,0.00
2023-01-17T02:04:05.005Z,0.00
2023-01-17T02:05:05.018Z,0.00
2023-01-17T02:06:04.962Z,0.00
2023-01-17T02:07:04.947Z,0.00
2023-01-17T02:08:04.950Z,0.00
2023-01-17T02:09:04.933Z,0.00
2023-01-17T02:10:04.937Z,0.00
2023-01-17T02:11:04.903Z,0.00
2023-01-17T02:12:04.896Z,0.00
2023-01-17T02:13:04.904Z,0.00
2023-01-17T02:14:04.873Z,0.00
2023-01-17T02:15:04.861Z,0.00
2023-01-17T02:16:04.933Z,0.00
2023-01-17T02:17:04.841Z,0.00
2023-01-17T02:18:04.846Z,0.00
2023-01-17T02:19:04.826Z,0.00
2023-01-17T02:20:04.809Z,0.00
2023-01-17T02:21:04.805Z,0.00
2023-01-17T02:22:04.815Z,0.00
2023-01-17T02:23:04.794Z,0.00
2023-01-17T02:24:04.775Z,0.00
2023-01-17T02:25:04.767Z,0.00
2023-01-17T02:26:04.771Z,0.00
2023-01-17T02:27:04.744Z,0.00
2023-01-17T02:28:04.738Z,0.00
2023-01-17T02:29:04.713Z,0.00
2023-01-17T02:30:04.712Z,0.00
2023-01-17T02:31:04.699Z,0.00
2023-01-17T02:32:04.712Z,0.00
2023-01-17T02:33:04.683Z,0.00
2023-01-17T02:34:04.667Z,0.00
2023-01-17T02:35:04.650Z,0.00
2023-01-17T02:36:04.637Z,0.00
2023-01-17T02:37:04.636Z,0.00
2023-01-17T02:38:04.632Z,0.00
2023-01-17T02:39:04.607Z,0.00
2023-01-17T02:40:04.664Z,0.00
2023-01-17T02:41:04.589Z,0.00
2023-01-17T02:42:04.598Z,0.00
2023-01-17T02:43:04.573Z,0.00
2023-01-17T02:44:04.559Z,0.00
2023-01-17T02:45:04.544Z,0.00
2023-01-17T02:46:04.624Z,0.00
2023-01-17T02:47:04.533Z,0.00
2023-01-17T02:48:04.520Z,0.00
2023-01-17T02:49:04.504Z,0.00
2023-01-17T02:50:04.495Z,0.00
2023-01-17T02:51:04.481Z,0.00
2023-01-17T02:52:04.475Z,0.00
2023-01-17T02:53:04.505Z,0.00
2023-01-17T02:54:04.454Z,0.00
2023-01-17T02:55:04.436Z,0.00
2023-01-17T02:56:04.432Z,0.00
2023-01-17T02:57:04.415Z,0.00
2023-01-17T02:58:04.462Z,0.00
2023-01-17T02:59:04.398Z,0.00
2023-01-17T03:00:04.389Z,0.00
2023-01-17T03:01:04.442Z,0.00
2023-01-17T03:02:04.494Z,0.00
2023-01-17T03:03:04.366Z,0.00
2023-01-17T03:04:04.350Z,0.00
2023-01-17T03:05:04.332Z,0.00
2023-01-17T03:06:04.353Z,0.00
2023-01-17T03:07:04.315Z,0.00
2023-01-17T03:08:04.317Z,0.00
2023-01-17T03:09:04.285Z,0.00
2023-01-17T03:10:04.280Z,0.00
2023-01-17T03:11:04.272Z,0.00
2023-01-17T03:12:04.260Z,0.00
2023-01-17T03:13:04.271Z,0.00
2023-01-17T03:14:04.264Z,0.00
2023-01-17T03:15:04.223Z,0.00
2023-01-17T03:16:04.215Z,0.00
2023-01-17T03:17:04.204Z,0.00
2023-01-17T03:18:04.213Z,0.00
2023-01-17T03:19:04.189Z,0.00
2023-01-17T03:20:04.189Z,0.00
2023-01-17T03:21:04.163Z,0.00
2023-01-17T03:22:04.153Z,0.00
2023-01-17T03:23:04.151Z,0.00
2023-01-17T03:24:04.129Z,0.00
2023-01-17T03:25:04.126Z,0.00
2023-01-17T03:26:04.122Z,0.00
2023-01-17T03:27:04.119Z,0.00
2023-01-17T03:28:04.106Z,0.00
2023-01-17T03:29:04.074Z,0.00
2023-01-17T03:30:04.090Z,0.00
2023-01-17T03:31:04.079Z,0.00
2023-01-17T03:32:04.044Z,0.00
2023-01-17T03:33:04.041Z,0.00
2023-01-17T03:34:04.022Z,0.00
2023-01-17T03:35:04.017Z,0.00
2023-01-17T03:36:04.002Z,0.00
2023-01-17T03:37:03.998Z,0.00
2023-01-17T03:38:04.017Z,0.00
2023-01-17T03:39:03.969Z,0.00
2023-01-17T03:40:03.958Z,0.00
2023-01-17T03:41:03.952Z,0.00
2023-01-17T03:42:03.964Z,0.00
2023-01-17T03:43:03.938Z,0.00
2023-01-17T03:44:03.944Z,0.00
2023-01-17T03:45:03.908Z,0.00
2023-01-17T03:46:03.980Z,0.00
2023-01-17T03:47:03.923Z,0.00
2023-01-17T03:48:03.888Z,0.00
2023-01-17T03:49:03.875Z,0.00
2023-01-17T03:50:03.893Z,0.00
2023-01-17T03:51:03.846Z,0.00
2023-01-17T03:52:03.836Z,0.00
2023-01-17T03:53:03.836Z,0.00
2023-01-17T03:54:03.819Z,0.00
2023-01-17T03:55:03.799Z,0.00
2023-01-17T03:56:03.795Z,0.00
2023-01-17T03:57:03.787Z,0.00
2023-01-17T03:58:03.777Z,0.00
2023-01-17T03:59:03.762Z,0.00
2023-01-17T04:00:03.756Z,0.00
2023-01-17T04:01:03.874Z,0.00
2023-01-17T04:02:03.940Z,0.00
2023-01-17T04:03:03.752Z,0.00
2023-01-17T04:04:03.707Z,0.00
2023-01-17T04:05:03.734Z,0.00
2023-01-17T04:06:03.686Z,0.00
2023-01-17T04:07:03.673Z,0.00
2023-01-17T04:08:03.673Z,0.00
2023-01-17T04:09:03.652Z,0.00
2023-01-17T04:10:03.645Z,0.00
2023-01-17T04:11:03.631Z,0.00
2023-01-17T04:12:03.627Z,0.00
2023-01-17T04:13:03.624Z,0.00
2023-01-17T04:14:03.602Z,0.00
2023-01-17T04:15:03.589Z,0.00
2023-01-17T04:16:03.577Z,0.00
2023-01-17T04:17:03.574Z,0.00
2023-01-17T04:18:03.587Z,0.00
2023-01-17T04:19:03.552Z,0.00
2023-01-17T04:20:03.570Z,0.00
2023-01-17T04:21:03.523Z,0.00
2023-01-17T04:22:03.513Z,0.00
2023-01-17T04:23:03.521Z,0.00
2023-01-17T04:24:03.507Z,0.00
2023-01-17T04:25:03.481Z,0.00
2023-01-17T04:26:03.485Z,0.00
2023-01-17T04:27:03.459Z,0.00
2023-01-17T04:28:03.487Z,0.00
2023-01-17T04:29:03.438Z,0.00
2023-01-17T04:30:03.433Z,0.00
2023-01-17T04:31:03.445Z,0.00
2023-01-17T04:32:03.443Z,0.00
2023-01-17T04:33:03.393Z,0.00
2023-01-17T04:34:03.471Z,0.00
2023-01-17T04:35:03.389Z,0.00
2023-01-17T04:36:03.370Z,0.00
2023-01-17T04:37:03.351Z,0.00
2023-01-17T04:38:03.340Z,0.00
2023-01-17T04:39:03.341Z,0.00
2023-01-17T04:40:03.322Z,0.00
2023-01-17T04:41:03.313Z,0.00
2023-01-17T04:42:03.307Z,0.00
2023-01-17T04:43:03.298Z,0.00
2023-01-17T04:44:03.308Z,0.00
2023-01-17T04:45:03.269Z,0.00
2023-01-17T04:46:03.315Z,0.00
2023-01-17T04:47:03.247Z,0.00
2023-01-17T04:48:03.255Z,0.00
2023-01-17T04:49:03.247Z,0.00
2023-01-17T04:50:03.240Z,0.00
2023-01-17T04:51:03.204Z,0.00
2023-01-17T04:52:03.195Z,0.00
2023-01-17T04:53:03.188Z,0.00
2023-01-17T04:54:03.197Z,0.00
2023-01-17T04:55:03.160Z,0.00
2023-01-17T04:56:03.172Z,0.00
2023-01-17T04:57:03.148Z,0.00
2023-01-17T04:58:03.131Z,0.00
2023-01-17T04:59:03.133Z,0.00
2023-01-17T05:00:03.115Z,0.00
2023-01-17T05:01:03.138Z,0.00
2023-01-17T05:02:03.153Z,0.00
2023-01-17T05:03:03.079Z,0.00
2023-01-17T05:04:03.077Z,0.00
2023-01-17T05:05:03.058Z,0.00
2023-01-17T05:06:03.072Z,0.00
2023-01-17T05:07:03.039Z,0.00
2023-01-17T05:08:03.023Z,0.00
2023-01-17T05:09:03.020Z,0.00
2023-01-17T05:10:03.000Z,0.00
2023-01-17T05:11:02.991Z,0.00
2023-01-17T05:12:02.985Z,0.00
2023-01-17T05:13:02.969Z,0.00
2023-01-17T05:14:02.975Z,0.00
2023-01-17T05:15:02.949Z,0.00
2023-01-17T05:16:03.016Z,0.00
2023-01-17T05:17:02.945Z,0.00
2023-01-17T05:18:02.924Z,0.00
2023-01-17T05:19:02.917Z,0.00
2023-01-17T05:20:02.896Z,0.00
2023-01-17T05:21:02.890Z,0.00
2023-01-17T05:22:02.897Z,0.00
2023-01-17T05:23:02.862Z,0.00
2023-01-17T05:24:02.863Z,0.00
2023-01-17T05:25:02.836Z,0.00
2023-01-17T05:26:02.831Z,0.00
2023-01-17T05:27:02.826Z,0.00
2023-01-17T05:28:02.810Z,0.00
2023-01-17T05:29:02.809Z,0.00
2023-01-17T05:30:02.787Z,0.00
2023-01-17T05:31:02.822Z,0.00
2023-01-17T05:32:02.762Z,0.00
2023-01-17T05:33:02.762Z,0.00
2023-01-17T05:34:02.752Z,0.00
2023-01-17T05:35:02.743Z,0.00
2023-01-17T05:36:02.722Z,0.00
2023-01-17T05:37:02.715Z,0.00
2023-01-17T05:38:02.721Z,0.00
2023-01-17T05:39:02.705Z,0.00
2023-01-17T05:40:02.684Z,0.00
2023-01-17T05:41:02.679Z,0.00
2023-01-17T05:42:02.654Z,0.00
2023-01-17T05:43:02.652Z,0.00
2023-01-17T05:44:02.648Z,0.00
2023-01-17T05:45:02.643Z,0.00
2023-01-17T05:46:02.670Z,0.00
2023-01-17T05:47:02.604Z,0.00
2023-01-17T05:48:02.596Z,0.00
2023-01-17T05:49:02.599Z,0.00
2023-01-17T05:50:02.571Z,0.00
2023-01-17T05:51:02.561Z,0.00
2023-01-17T05:52:02.554Z,0.00
2023-01-17T05:53:02.563Z,0.00
2023-01-17T05:54:02.570Z,0.00
2023-01-17T05:55:02.519Z,0.00
2023-01-17T05:56:02.506Z,0.00
2023-01-17T05:57:02.497Z,0.00
2023-01-17T05:58:02.492Z,0.00
2023-01-17T05:59:02.497Z,0.00
2023-01-17T06:00:02.466Z,0.00
2023-01-17T06:01:02.502Z,0.00
2023-01-17T06:02:02.440Z,0.00
2023-01-17T06:03:02.435Z,0.00
2023-01-17T06:04:02.430Z,0.00
2023-01-17T06:05:03.526Z,0.00
2023-01-17T06:06:02.402Z,0.00
2023-01-17T06:07:02.397Z,0.00
2023-01-17T06:08:02.388Z,0.00
2023-01-17T06:09:02.408Z,0.00
2023-01-17T06:10:02.443Z,0.00
2023-01-17T06:11:02.345Z,0.00
2023-01-17T06:12:02.334Z,0.00
2023-01-17T06:13:02.326Z,0.00
2023-01-17T06:14:02.321Z,0.00
2023-01-17T06:15:02.300Z,0.00
2023-01-17T06:16:02.349Z,0.00
2023-01-17T06:17:02.281Z,0.00
2023-01-17T06:18:02.271Z,0.00
2023-01-17T06:19:02.269Z,0.00
2023-01-17T06:20:02.252Z,4.00
2023-01-17T06:21:02.237Z,0.00
2023-01-17T06:22:02.225Z,0.00
2023-01-17T06:23:02.219Z,0.00
2023-01-17T06:24:04.077Z,0.00
2023-01-17T06:25:02.213Z,0.00
2023-01-17T06:26:02.203Z,0.00
2023-01-17T06:27:02.217Z,0.00
2023-01-17T06:28:02.160Z,0.00
2023-01-17T06:29:02.164Z,0.00
2023-01-17T06:30:02.140Z,0.00
2023-01-17T06:31:02.146Z,0.00
2023-01-17T06:32:02.119Z,0.00
2023-01-17T06:33:02.137Z,0.00
2023-01-17T06:34:02.109Z,0.00
2023-01-17T06:35:02.091Z,0.00
2023-01-17T06:36:02.074Z,4.00
2023-01-17T06:37:02.065Z,0.00
2023-01-17T06:38:02.061Z,0.00
2023-01-17T06:39:02.052Z,0.00
2023-01-17T06:40:02.087Z,4.00
2023-01-17T06:41:02.023Z,4.00
2023-01-17T06:42:02.053Z,4.00
2023-01-17T06:43:02.033Z,4.00
2023-01-17T06:44:02.006Z,4.00
2023-01-17T06:45:01.977Z,4.00
2023-01-17T06:46:01.967Z,4.00
2023-01-17T06:47:01.968Z,4.00
2023-01-17T06:48:01.946Z,4.00
2023-01-17T06:49:01.965Z,0.00
2023-01-17T06:50:01.929Z,4.00
2023-01-17T06:51:01.919Z,4.00
2023-01-17T06:52:01.905Z,4.00
2023-01-17T06:53:01.919Z,4.00
2023-01-17T06:54:01.902Z,4.00
2023-01-17T06:55:01.873Z,8.00
2023-01-17T06:56:01.869Z,12.00
2023-01-17T06:57:01.852Z,8.00
2023-01-17T06:58:01.863Z,12.00
2023-01-17T06:59:01.845Z,12.00
2023-01-17T07:00:01.844Z,16.00
2023-01-17T07:01:01.899Z,24.00
2023-01-17T07:02:01.795Z,36.00
2023-01-17T07:03:01.793Z,40.00
2023-01-17T07:04:01.928Z,44.00
2023-01-17T07:05:01.763Z,44.00
2023-01-17T07:06:01.757Z,52.00
2023-01-17T07:07:01.744Z,56.00
2023-01-17T07:08:01.745Z,64.00
2023-01-17T07:09:01.736Z,68.00
2023-01-17T07:10:01.727Z,72.00
2023-01-17T07:11:01.702Z,80.00
2023-01-17T07:12:01.703Z,88.00
2023-01-17T07:13:01.681Z,96.00
2023-01-17T07:14:01.686Z,100.00
2023-01-17T07:15:01.731Z,100.00
2023-01-17T07:16:01.695Z,92.00
2023-01-17T07:17:01.654Z,96.00
2023-01-17T07:18:01.674Z,100.00
2023-01-17T07:19:01.614Z,108.00
2023-01-17T07:20:01.622Z,116.00
2023-01-17T07:21:01.601Z,124.00
2023-01-17T07:22:01.593Z,144.00
2023-01-17T07:23:01.573Z,156.00
2023-01-17T07:24:01.559Z,164.00
2023-01-17T07:25:01.584Z,184.00
2023-01-17T07:26:01.537Z,212.00
2023-01-17T07:27:01.532Z,260.00
2023-01-17T07:28:01.531Z,292.00
2023-01-17T07:29:01.538Z,260.00
2023-01-17T07:30:01.559Z,316.00
2023-01-17T07:31:01.545Z,320.00
2023-01-17T07:32:01.552Z,284.00
2023-01-17T07:33:01.463Z,268.00
2023-01-17T07:34:01.454Z,288.00
2023-01-17T07:35:01.463Z,280.00
2023-01-17T07:36:01.458Z,288.00
2023-01-17T07:37:01.428Z,360.00
2023-01-17T07:38:01.413Z,416.00
2023-01-17T07:39:01.398Z,480.00
2023-01-17T07:40:01.423Z,516.00
2023-01-17T07:41:01.384Z,476.00
2023-01-17T07:42:01.370Z,412.00
2023-01-17T07:43:01.365Z,408.00
2023-01-17T07:44:01.343Z,412.00
2023-01-17T07:45:01.350Z,404.00
2023-01-17T07:46:02.347Z,400.00
2023-01-17T07:47:01.325Z,420.00
2023-01-17T07:48:01.307Z,424.00
2023-01-17T07:49:01.298Z,464.00
2023-01-17T07:50:01.300Z,576.00
2023-01-17T07:51:01.272Z,668.00
2023-01-17T07:52:01.265Z,788.00
2023-01-17T07:53:01.259Z,956.00
2023-01-17T07:54:01.423Z,1216.00
2023-01-17T07:55:01.244Z,1516.00
2023-01-17T07:56:01.215Z,1748.00
2023-01-17T07:57:01.213Z,1848.00
2023-01-17T07:58:02.985Z,1956.00
2023-01-17T07:59:01.191Z,2160.00
2023-01-17T08:00:01.183Z,2392.00
2023-01-17T08:01:01.271Z,2688.00
2023-01-17T08:02:01.407Z,2940.00
2023-01-17T08:03:01.160Z,3152.00
2023-01-17T08:04:01.195Z,2932.00
2023-01-17T08:05:01.157Z,6128.00
2023-01-17T08:06:01.115Z,3260.00
2023-01-17T08:07:01.103Z,6796.00
2023-01-17T08:08:01.094Z,9748.00
2023-01-17T08:09:01.081Z,3116.00
2023-01-17T08:10:01.092Z,2016.00
2023-01-17T08:11:01.063Z,2504.00
2023-01-17T08:12:01.047Z,1596.00
2023-01-17T08:13:01.043Z,1576.00
2023-01-17T08:14:01.039Z,1432.00
2023-01-17T08:15:01.028Z,1424.00
2023-01-17T08:16:01.064Z,1444.00
2023-01-17T08:17:00.995Z,1492.00
2023-01-17T08:18:01.091Z,1576.00
2023-01-17T08:19:00.996Z,1572.00
2023-01-17T08:20:00.978Z,1504.00
2023-01-17T08:21:00.952Z,1460.00
2023-01-17T08:22:00.955Z,1504.00
2023-01-17T08:23:00.937Z,1960.00
2023-01-17T08:24:00.933Z,2856.00
2023-01-17T08:25:00.918Z,1488.00
2023-01-17T08:26:00.911Z,1492.00
2023-01-17T08:27:00.888Z,1512.00
2023-01-17T08:28:00.879Z,1676.00
2023-01-17T08:29:00.928Z,1740.00
2023-01-17T08:30:00.865Z,1748.00
2023-01-17T08:31:00.861Z,1920.00
2023-01-17T08:32:00.830Z,2252.00
2023-01-17T08:33:00.820Z,2664.00
2023-01-17T08:34:00.832Z,2268.00
2023-01-17T08:35:00.839Z,2092.00
2023-01-17T08:36:00.788Z,1756.00
2023-01-17T08:37:00.781Z,1608.00
2023-01-17T08:38:00.771Z,1468.00
2023-01-17T08:39:00.771Z,1344.00
2023-01-17T08:40:00.759Z,1144.00
2023-01-17T08:41:00.757Z,1060.00
2023-01-17T08:42:00.721Z,1140.00
2023-01-17T08:43:00.716Z,1152.00
2023-01-17T08:44:00.719Z,1044.00
2023-01-17T08:45:00.705Z,1028.00
2023-01-17T08:46:00.831Z,1028.00
2023-01-17T08:47:00.668Z,1096.00
2023-01-17T08:48:00.686Z,1040.00
2023-01-17T08:49:00.665Z,1076.00
2023-01-17T08:50:00.691Z,1204.00
2023-01-17T08:51:00.629Z,1492.00
2023-01-17T08:52:00.619Z,1916.00
2023-01-17T08:53:01.386Z,1684.00
2023-01-17T08:54:00.609Z,1220.00
2023-01-17T08:55:00.657Z,876.00
2023-01-17T08:56:00.579Z,760.00
2023-01-17T08:57:00.577Z,892.00
2023-01-17T08:58:00.565Z,776.00
2023-01-17T08:59:00.540Z,760.00
2023-01-17T09:00:00.533Z,792.00
2023-01-17T09:01:00.695Z,736.00
2023-01-17T09:02:00.732Z,1088.00
2023-01-17T09:03:00.496Z,1016.00
2023-01-17T09:04:00.575Z,968.00
2023-01-17T09:05:00.537Z,2044.00
2023-01-17T09:06:00.493Z,3340.00
2023-01-17T09:07:00.454Z,2836.00
2023-01-17T09:08:00.447Z,2356.00
2023-01-17T09:09:00.433Z,1696.00
2023-01-17T09:10:00.459Z,1684.00
2023-01-17T09:11:00.411Z,2208.00
2023-01-17T09:12:00.412Z,2068.00
2023-01-17T09:13:00.390Z,2592.00
2023-01-17T09:14:00.377Z,2832.00
2023-01-17T09:15:00.368Z,3120.00
2023-01-17T09:16:00.365Z,3876.00
2023-01-17T09:17:00.347Z,2552.00
2023-01-17T09:18:00.333Z,2208.00
2023-01-17T09:19:00.329Z,2684.00
2023-01-17T09:20:00.317Z,2680.00
2023-01-17T09:21:00.317Z,1856.00
2023-01-17T09:22:00.309Z,2532.00
2023-01-17T09:23:00.281Z,2960.00
2023-01-17T09:24:00.271Z,2228.00
2023-01-17T09:25:00.263Z,1792.00
2023-01-17T09:26:00.255Z,2096.00
2023-01-17T09:27:00.241Z,2504.00
2023-01-17T09:28:00.225Z,2088.00
2023-01-17T09:29:00.215Z,2552.00
2023-01-17T09:30:00.202Z,2664.00
2023-01-17T09:31:00.256Z,2232.00
2023-01-17T09:32:00.181Z,1556.00
2023-01-17T09:33:00.176Z,1304.00
2023-01-17T09:34:00.174Z,1240.00
2023-01-17T09:35:00.154Z,1124.00
2023-01-17T09:36:00.152Z,972.00
2023-01-17T09:37:00.127Z,908.00
2023-01-17T09:38:00.139Z,1000.00
2023-01-17T09:39:00.125Z,1140.00
2023-01-17T09:40:00.129Z,1196.00
2023-01-17T09:41:00.121Z,1100.00
2023-01-17T09:42:00.113Z,884.00
2023-01-17T09:43:00.085Z,784.00
2023-01-17T09:44:00.050Z,736.00
2023-01-17T09:45:00.057Z,776.00
2023-01-17T09:46:00.163Z,680.00
2023-01-17T09:47:00.057Z,564.00
2023-01-17T09:48:00.013Z,576.00
2023-01-17T09:49:00.011Z,532.00
2023-01-17T09:49:59.996Z,552.00
2023-01-17T09:50:59.989Z,564.00
2023-01-17T09:51:59.968Z,548.00
2023-01-17T09:52:59.956Z,596.00
2023-01-17T09:53:59.976Z,668.00
2023-01-17T09:54:59.943Z,632.00
2023-01-17T09:55:59.938Z,684.00
2023-01-17T09:56:59.913Z,704.00
2023-01-17T09:57:59.901Z,768.00
2023-01-17T09:58:59.901Z,876.00
2023-01-17T10:00:03.614Z,856.00
2023-01-17T10:00:59.964Z,1032.00
2023-01-17T10:02:00.097Z,984.00
2023-01-17T10:02:59.912Z,1060.00
2023-01-17T10:03:59.942Z,916.00
2023-01-17T10:04:59.832Z,992.00
2023-01-17T10:05:59.836Z,1108.00
2023-01-17T10:06:59.804Z,1088.00
2023-01-17T10:07:59.815Z,1072.00
2023-01-17T10:08:59.828Z,1272.00
2023-01-17T10:09:59.798Z,1336.00
2023-01-17T10:10:59.790Z,1388.00
2023-01-17T10:11:59.758Z,1224.00
2023-01-17T10:12:59.743Z,1104.00
2023-01-17T10:13:59.735Z,1440.00
2023-01-17T10:14:59.717Z,1236.00
2023-01-17T10:16:00.840Z,1384.00
2023-01-17T10:16:59.764Z,1136.00
2023-01-17T10:17:59.691Z,1136.00
2023-01-17T10:18:59.675Z,1140.00
2023-01-17T10:19:59.669Z,1232.00
2023-01-17T10:20:59.674Z,1188.00
2023-01-17T10:21:59.643Z,1428.00
2023-01-17T10:22:59.634Z,1332.00
2023-01-17T10:23:59.624Z,1424.00
2023-01-17T10:24:59.613Z,1248.00
2023-01-17T10:25:59.626Z,1228.00
2023-01-17T10:26:59.592Z,960.00
2023-01-17T10:27:59.579Z,852.00
2023-01-17T10:28:59.565Z,824.00
2023-01-17T10:29:59.559Z,840.00
2023-01-17T10:30:59.637Z,832.00
2023-01-17T10:31:59.541Z,876.00
2023-01-17T10:32:59.555Z,1052.00
2023-01-17T10:33:59.514Z,1052.00
2023-01-17T10:34:59.504Z,1004.00
2023-01-17T10:35:59.514Z,896.00
2023-01-17T10:36:59.481Z,840.00
2023-01-17T10:37:59.481Z,792.00
2023-01-17T10:38:59.474Z,712.00
2023-01-17T10:39:59.449Z,672.00
2023-01-17T10:40:59.447Z,724.00
2023-01-17T10:41:59.480Z,792.00
2023-01-17T10:42:59.419Z,912.00
2023-01-17T10:43:59.408Z,1044.00
2023-01-17T10:44:59.399Z,1124.00
2023-01-17T10:46:00.141Z,1376.00
2023-01-17T10:46:59.377Z,1372.00
2023-01-17T10:47:59.375Z,1452.00
2023-01-17T10:48:59.355Z,1412.00
2023-01-17T10:49:59.341Z,1528.00
2023-01-17T10:50:59.339Z,1380.00
2023-01-17T10:51:59.322Z,1376.00
2023-01-17T10:52:59.312Z,1292.00
2023-01-17T10:54:01.711Z,1232.00
2023-01-17T10:54:59.301Z,1316.00
2023-01-17T10:55:59.286Z,1360.00
2023-01-17T10:56:59.267Z,1184.00
2023-01-17T10:57:59.280Z,1008.00
2023-01-17T10:58:59.245Z,916.00
2023-01-17T10:59:59.235Z,984.00
2023-01-17T11:00:59.276Z,1052.00
2023-01-17T11:01:59.259Z,1124.00
2023-01-17T11:02:59.227Z,1356.00
2023-01-17T11:03:59.189Z,1308.00
2023-01-17T11:04:59.179Z,1076.00
2023-01-17T11:05:59.182Z,1076.00
2023-01-17T11:06:59.155Z,1156.00
2023-01-17T11:07:59.220Z,1276.00
2023-01-17T11:08:59.138Z,1316.00
2023-01-17T11:09:59.139Z,1264.00
2023-01-17T11:10:59.122Z,1036.00
2023-01-17T11:11:59.114Z,1124.00
2023-01-17T11:12:59.093Z,1224.00
2023-01-17T11:13:59.117Z,1360.00
2023-01-17T11:14:59.070Z,1448.00
2023-01-17T11:15:59.140Z,1280.00
2023-01-17T11:16:59.055Z,1308.00
2023-01-17T11:17:59.038Z,1296.00
2023-01-17T11:18:59.030Z,1380.00
2023-01-17T11:19:59.028Z,1424.00
2023-01-17T11:20:59.017Z,1480.00
2023-01-17T11:21:58.997Z,1248.00
2023-01-17T11:22:58.990Z,1024.00
2023-01-17T11:23:58.999Z,968.00
2023-01-17T11:24:58.999Z,932.00
2023-01-17T11:25:58.964Z,932.00
2023-01-17T11:26:58.942Z,896.00
2023-01-17T11:27:58.931Z,856.00
2023-01-17T11:28:58.921Z,716.00
2023-01-17T11:29:58.948Z,724.00
2023-01-17T11:30:58.981Z,708.00
2023-01-17T11:31:58.889Z,816.00
2023-01-17T11:32:58.894Z,924.00
2023-01-17T11:33:58.876Z,1068.00
2023-01-17T11:34:58.879Z,1076.00
2023-01-17T11:35:58.857Z,1124.00
2023-01-17T11:36:58.834Z,956.00
2023-01-17T11:37:58.833Z,900.00
2023-01-17T11:38:58.826Z,1100.00
2023-01-17T11:39:58.804Z,1280.00
2023-01-17T11:40:58.805Z,1328.00
2023-01-17T11:41:58.784Z,1328.00
2023-01-17T11:42:58.773Z,1572.00
2023-01-17T11:43:58.763Z,1716.00
2023-01-17T11:44:58.751Z,1612.00
2023-01-17T11:45:58.806Z,1632.00
2023-01-17T11:46:58.745Z,1576.00
2023-01-17T11:47:58.720Z,1480.00
2023-01-17T11:48:58.762Z,1808.00
2023-01-17T11:49:58.708Z,2000.00
2023-01-17T11:50:58.717Z,1876.00
2023-01-17T11:51:58.695Z,1724.00
2023-01-17T11:52:58.670Z,2140.00
2023-01-17T11:53:58.656Z,2688.00
2023-01-17T11:54:58.645Z,3080.00
2023-01-17T11:55:58.652Z,2608.00
2023-01-17T11:56:58.636Z,2812.00
2023-01-17T11:57:58.629Z,3332.00
2023-01-17T11:58:58.602Z,2896.00
2023-01-17T11:59:58.600Z,3428.00
2023-01-17T12:00:58.607Z,3048.00
2023-01-17T12:01:58.639Z,2524.00
2023-01-17T12:02:58.570Z,2564.00
2023-01-17T12:03:58.639Z,2348.00
2023-01-17T12:04:58.567Z,2112.00
2023-01-17T12:05:58.543Z,1756.00
2023-01-17T12:06:58.716Z,1644.00
2023-01-17T12:07:58.510Z,2116.00
2023-01-17T12:08:58.498Z,2992.00
2023-01-17T12:09:58.491Z,4692.00
2023-01-17T12:10:58.471Z,5076.00
2023-01-17T12:11:58.479Z,5260.00
2023-01-17T12:12:58.457Z,5200.00
2023-01-17T12:13:58.480Z,5580.00
2023-01-17T12:14:58.430Z,5572.00
2023-01-17T12:15:58.468Z,5448.00
2023-01-17T12:16:58.423Z,4900.00
2023-01-17T12:17:58.460Z,4796.00
2023-01-17T12:18:58.392Z,4620.00
2023-01-17T12:19:58.379Z,4104.00
2023-01-17T12:20:58.365Z,4516.00
2023-01-17T12:21:58.383Z,3788.00
2023-01-17T12:22:58.342Z,4396.00
2023-01-17T12:23:58.339Z,4008.00
2023-01-17T12:24:58.321Z,3872.00
2023-01-17T12:25:58.312Z,3716.00
2023-01-17T12:26:58.314Z,3240.00
2023-01-17T12:27:58.303Z,3068.00
2023-01-17T12:28:58.280Z,3492.00
2023-01-17T12:29:58.279Z,2984.00
2023-01-17T12:30:58.275Z,3516.00
2023-01-17T12:31:58.259Z,3188.00
2023-01-17T12:32:58.271Z,3088.00
2023-01-17T12:33:58.275Z,2804.00
2023-01-17T12:34:58.218Z,3028.00
2023-01-17T12:35:58.204Z,2676.00
2023-01-17T12:36:58.205Z,2456.00
2023-01-17T12:38:04.634Z,2308.00
2023-01-17T12:38:59.168Z,2512.00
2023-01-17T12:39:58.161Z,2280.00
2023-01-17T12:40:58.157Z,2084.00
2023-01-17T12:41:58.151Z,1912.00
2023-01-17T12:42:58.127Z,1824.00
2023-01-17T12:43:58.119Z,3016.00
2023-01-17T12:44:58.104Z,3516.00
2023-01-17T12:45:58.098Z,3656.00
2023-01-17T12:46:58.094Z,3808.00